Main page
METAR-TAF:

METAR-TAF

Airports :

Niederstetten Air Base

Niederstetten, Germany

latitude: 49-24N, longitude: 009-58E, elevation: 468 m

Current weather observation

The report was made 26 minutes ago, at 11:20 UTC
Wind 3 kt from the Southeast
Temperature 6°C
Humidity 39%
Pressure 1019 hPa
Visibility 10 km or more
Few clouds at a height of 26000 ft

METAR: ETHN 011120Z 13003KT 9999 FEW260 06/M07 Q1019 BLU+BLU+

Time: 13:46 (11:46 UTC)

Forecast

The report was made 1 hour and 46 minutes ago, at 10:00 UTC
Forecast valid from 01 at 11 UTC to 01 at 20 UTC
Wind 10 kt from the East/Northeast
Visibility 10 km or more
Few clouds at a height of 25000 ft

TAF: ETHN 011000Z 0111/0120 06010KT 9999 NSW FEW250

Weather observations and forecasts of more than 4000 airports (METAR and TAF reports).

The available stations are represented by yellow and red dots on the map.

Hover mouse over dot to see the name of the station.

Then click to see weather observations and forecasts.

To change the map : click on the green buttons with a black cross to zoom in, on the green button with a dash to zoom out, or on the green arrows for adjacent maps.


METAR-TAF: